LGRS weather

Logan Reserve Airport
Queensland, Australia

Public forecast

Using degrees Celsius for public forecast. Weather courtesy of forecast.io.

Closest aviation weather report (METAR) to Logan Reserve Airport

Closest report is Brisbane International Airport, 19.5 nm (36.1 km) N. Retrieved 2019/10/21 06:30 UTC (26 minutes ago):

YBBN 210630Z 12010KT 9999 FEW035 21/11 Q1023 FM0800 14010KT 9999 FEW035

Closest aviation forecast (TAF) to Logan Reserve Airport

Closest forecast is Brisbane International Airport, 19.5 nm (36.1 km) N. Retrieved 2019/10/21 06:37 UTC (19 minutes ago):

TAF YBBN 210511Z 2106/2212 11016KT 9999 FEW040 FM210800 14010KT 9999 FEW035 FM211400 21006KT 9999 SCT025 FM212200 13010KT 9999 FEW030 FM220100 09014KT 9999 FEW040 FM221000 14010KT 9999 SCT025